Time;durP1;ratioP1;P1;durP2;ratioP2;P2;SDS_P1;SDS_P2;PMS_P1;PMS_P2;Temp;Humidity;BMP_temperature;BMP_pressure;BME280_temperature;BME280_humidity;BME280_pressure;Samples;Min_cycle;Max_cycle;Signal;HPM_P1;HPM_P2
2023/04/22 00:01:24;;;;;;;25.52;23.23;;;7.60;99.90;;;;;;5232836;28;20103;-74
2023/04/22 00:03:55;;;;;;;27.30;25.20;;;7.60;99.90;;;;;;5229015;28;20108;-74
2023/04/22 00:06:26;;;;;;;28.85;26.50;;;7.40;99.90;;;;;;5246219;28;20440;-73
2023/04/22 00:08:57;;;;;;;27.60;25.20;;;7.60;99.90;;;;;;5245064;28;20078;-74
2023/04/22 00:11:28;;;;;;;26.10;23.33;;;7.40;99.90;;;;;;5234004;28;20480;-74
2023/04/22 00:13:59;;;;;;;27.23;24.58;;;7.40;99.90;;;;;;5226686;28;20025;-73
2023/04/22 00:16:30;;;;;;;26.92;24.20;;;7.50;99.90;;;;;;5227796;28;20029;-72
2023/04/22 00:19:01;;;;;;;27.60;24.88;;;7.70;99.90;;;;;;5227775;28;20045;-73
2023/04/22 00:21:32;;;;;;;26.33;23.90;;;7.70;99.90;;;;;;5226474;28;20039;-73
2023/04/22 00:24:03;;;;;;;29.45;26.67;;;7.60;99.90;;;;;;5226452;28;20431;-72
2023/04/22 00:26:33;;;;;;;25.58;22.90;;;7.80;99.90;;;;;;5226743;28;20087;-73
2023/04/22 00:29:04;;;;;;;27.85;25.17;;;7.50;99.90;;;;;;5226961;28;20017;-74
2023/04/22 00:31:35;;;;;;;25.00;22.67;;;7.60;99.90;;;;;;5231256;28;20029;-73
2023/04/22 00:34:06;;;;;;;27.98;25.17;;;7.50;99.90;;;;;;5231752;28;20037;-72
2023/04/22 00:36:37;;;;;;;31.58;28.35;;;7.40;99.90;;;;;;5227653;28;20384;-73
2023/04/22 00:39:08;;;;;;;27.17;24.88;;;7.40;99.90;;;;;;5226355;28;20049;-72
2023/04/22 00:41:39;;;;;;;27.67;24.98;;;7.60;99.90;;;;;;5226504;28;20067;-73
2023/04/22 00:44:11;;;;;;;26.92;24.23;;;7.60;99.90;;;;;;5237228;28;20079;-72
2023/04/22 00:46:41;;;;;;;28.38;25.73;;;7.40;99.90;;;;;;5235502;28;20035;-74
2023/04/22 00:49:13;;;;;;;30.33;27.63;;;7.50;99.90;;;;;;5245641;28;20024;-72
2023/04/22 00:51:44;;;;;;;30.55;27.33;;;7.40;99.90;;;;;;5246963;28;20555;-72
2023/04/22 00:54:15;;;;;;;26.80;24.52;;;7.40;99.90;;;;;;5245958;28;20116;-73
2023/04/22 00:56:46;;;;;;;26.85;24.17;;;7.40;99.90;;;;;;5236619;28;20037;-72
2023/04/22 00:59:17;;;;;;;25.55;23.15;;;7.60;99.90;;;;;;5226626;28;20482;-73
2023/04/22 01:01:48;;;;;;;28.05;25.67;;;8.00;99.90;;;;;;5230963;28;20086;-72
2023/04/22 01:04:20;;;;;;;31.08;28.17;;;8.10;99.90;;;;;;5245738;28;20028;-73
2023/04/22 01:06:54;;;;;;;26.40;24.15;;;8.00;99.90;;;;;;5245284;28;20031;-72
2023/04/22 01:09:25;;;;;;;28.30;25.65;;;7.60;99.90;;;;;;5231515;28;20056;-73
2023/04/22 01:11:56;;;;;;;26.70;24.45;;;7.60;99.90;;;;;;5235583;28;20124;-73
2023/04/22 01:14:27;;;;;;;30.95;27.98;;;7.70;99.90;;;;;;5235429;28;20031;-73
2023/04/22 01:16:58;;;;;;;25.42;22.77;;;7.80;99.90;;;;;;5230311;28;20025;-72
2023/04/22 01:19:29;;;;;;;27.48;25.05;;;7.80;99.90;;;;;;5231735;28;20036;-74
2023/04/22 01:22:01;;;;;;;27.70;25.30;;;7.80;99.90;;;;;;5230253;28;20059;-74
2023/04/22 01:24:33;;;;;;;26.33;23.98;;;7.70;99.90;;;;;;5230787;28;20074;-73
2023/04/22 01:27:04;;;;;;;26.00;23.58;;;7.70;99.90;;;;;;5230263;28;20079;-72
2023/04/22 01:29:38;;;;;;;26.40;23.90;;;8.10;99.90;;;;;;5230111;28;20032;-74
2023/04/22 01:32:09;;;;;;;26.35;24.08;;;7.80;99.90;;;;;;5230706;28;20052;-73
2023/04/22 01:34:40;;;;;;;29.23;26.50;;;7.60;99.90;;;;;;5248608;28;20090;-73
2023/04/22 01:37:11;;;;;;;30.13;27.13;;;7.60;99.90;;;;;;5250657;28;20033;-73
2023/04/22 01:39:41;;;;;;;28.80;23.80;;;7.90;99.90;;;;;;5231079;28;20090;-72
2023/04/22 01:42:13;;;;;;;27.25;24.65;;;7.60;99.90;;;;;;5230422;28;20075;-73
2023/04/22 01:44:45;;;;;;;28.05;25.52;;;7.50;99.90;;;;;;5245130;28;20028;-74
2023/04/22 01:47:16;;;;;;;24.65;22.63;;;7.70;99.90;;;;;;5229778;28;20449;-72
2023/04/22 01:49:46;;;;;;;26.13;23.80;;;7.80;99.90;;;;;;5229341;28;20032;-73
2023/04/22 01:52:17;;;;;;;24.30;22.08;;;8.00;99.90;;;;;;5244407;28;20048;-73
2023/04/22 01:54:49;;;;;;;27.63;24.90;;;7.90;99.90;;;;;;5250439;28;20090;-73
2023/04/22 01:57:19;;;;;;;26.42;23.88;;;7.30;99.90;;;;;;5250455;28;20491;-73
2023/04/22 01:59:50;;;;;;;27.05;24.77;;;7.10;99.90;;;;;;5231038;28;20044;-73
2023/04/22 02:02:21;;;;;;;26.70;24.20;;;7.30;99.90;;;;;;5228728;28;20037;-73
2023/04/22 02:04:52;;;;;;;26.50;24.05;;;7.30;99.90;;;;;;5229383;28;20052;-73
2023/04/22 02:07:23;;;;;;;26.67;24.30;;;7.30;99.90;;;;;;5229240;28;20384;-72
2023/04/22 02:09:54;;;;;;;27.50;25.05;;;7.40;99.90;;;;;;5229752;28;20067;-72
2023/04/22 02:12:24;;;;;;;25.50;22.83;;;7.50;99.90;;;;;;5229059;28;20028;-73
2023/04/22 02:14:55;;;;;;;24.73;22.30;;;6.90;99.90;;;;;;5229201;28;20392;-72
2023/04/22 02:17:26;;;;;;;26.33;24.05;;;6.90;99.90;;;;;;5229671;28;20029;-73
2023/04/22 02:19:57;;;;;;;24.98;22.75;;;7.20;99.90;;;;;;5247392;28;20058;-73
2023/04/22 02:22:28;;;;;;;26.95;24.38;;;7.40;99.90;;;;;;5250059;28;20021;-73
2023/04/22 02:25:00;;;;;;;28.25;24.65;;;7.20;99.90;;;;;;5249975;28;20025;-73
2023/04/22 02:27:30;;;;;;;29.05;26.25;;;6.90;99.90;;;;;;5237700;28;20029;-73
2023/04/22 02:30:02;;;;;;;27.63;25.05;;;6.60;99.90;;;;;;5229194;28;20051;-72
2023/04/22 02:32:35;;;;;;;27.58;24.98;;;6.70;99.90;;;;;;5228860;28;20052;-73
2023/04/22 02:35:06;;;;;;;27.13;24.42;;;6.50;99.90;;;;;;5245888;28;20436;-72
2023/04/22 02:37:37;;;;;;;27.70;24.83;;;6.70;99.90;;;;;;5246973;28;20441;-73
2023/04/22 02:40:09;;;;;;;27.38;24.65;;;6.80;99.90;;;;;;5228801;28;20033;-74
2023/04/22 02:42:39;;;;;;;28.70;25.85;;;7.10;99.90;;;;;;5241358;28;20035;-73
2023/04/22 02:45:10;;;;;;;26.60;24.17;;;7.30;99.90;;;;;;5228888;28;20024;-73
2023/04/22 02:47:41;;;;;;;27.13;24.60;;;6.90;99.90;;;;;;5228837;28;20029;-73
2023/04/22 02:50:12;;;;;;;24.90;22.75;;;6.80;99.90;;;;;;5249376;28;20032;-73
2023/04/22 02:52:43;;;;;;;24.73;22.60;;;6.70;99.90;;;;;;5249000;28;20031;-73
2023/04/22 02:55:14;;;;;;;25.45;23.27;;;6.60;99.90;;;;;;5249271;28;20036;-73
2023/04/22 02:57:45;;;;;;;26.58;24.13;;;7.00;99.90;;;;;;5248228;28;20025;-72
2023/04/22 03:00:16;;;;;;;27.92;25.40;;;7.10;99.90;;;;;;5249239;28;20142;-73
2023/04/22 03:02:47;;;;;;;26.90;24.45;;;7.00;99.90;;;;;;5236588;28;20032;-73
2023/04/22 03:05:18;;;;;;;24.75;22.48;;;7.20;99.90;;;;;;5228192;28;20087;-72
2023/04/22 03:07:49;;;;;;;26.48;24.10;;;7.30;99.90;;;;;;5228020;28;20028;-72
2023/04/22 03:10:20;;;;;;;25.65;23.38;;;7.40;99.90;;;;;;5226999;28;20032;-72
2023/04/22 03:12:50;;;;;;;22.98;20.98;;;7.50;99.90;;;;;;5239284;28;20119;-73
2023/04/22 03:15:21;;;;;;;23.85;21.85;;;6.80;99.90;;;;;;5248759;28;20027;-72
2023/04/22 03:17:52;;;;;;;25.75;23.58;;;7.00;99.90;;;;;;5244975;28;20021;-72
2023/04/22 03:20:23;;;;;;;24.05;22.00;;;7.00;99.90;;;;;;5228011;28;20112;-72
2023/04/22 03:22:54;;;;;;;26.63;24.30;;;7.10;99.90;;;;;;5227487;28;20484;-73
2023/04/22 03:25:25;;;;;;;26.60;24.33;;;6.90;99.90;;;;;;5227527;28;20037;-73
2023/04/22 03:27:55;;;;;;;25.48;23.13;;;7.00;99.90;;;;;;5230578;28;20055;-73
2023/04/22 03:30:26;;;;;;;25.90;23.42;;;7.10;99.90;;;;;;5248520;28;20031;-73
2023/04/22 03:32:57;;;;;;;26.08;23.58;;;6.60;99.90;;;;;;5239465;28;20039;-73
2023/04/22 03:35:28;;;;;;;24.42;21.90;;;7.10;99.90;;;;;;5227897;28;20021;-72
2023/04/22 03:37:59;;;;;;;23.80;21.75;;;7.10;99.90;;;;;;5227734;28;20045;-72
2023/04/22 03:40:30;;;;;;;28.80;26.13;;;7.30;99.90;;;;;;5227680;28;20094;-72
2023/04/22 03:43:02;;;;;;;25.30;23.33;;;7.00;99.90;;;;;;5227708;28;20071;-72
2023/04/22 03:45:33;;;;;;;25.85;23.88;;;6.90;99.90;;;;;;5227382;28;20075;-72
2023/04/22 03:48:04;;;;;;;26.88;24.45;;;7.00;99.90;;;;;;5227115;28;20045;-73
2023/04/22 03:50:35;;;;;;;27.55;25.45;;;7.00;99.90;;;;;;5227477;28;20524;-72
2023/04/22 03:53:07;;;;;;;28.20;25.65;;;7.00;99.90;;;;;;5245569;28;20107;-72
2023/04/22 03:55:38;;;;;;;25.67;23.45;;;7.10;99.90;;;;;;5247962;28;20028;-72
2023/04/22 03:58:09;;;;;;;29.58;26.67;;;7.30;99.90;;;;;;5246627;28;20029;-73
2023/04/22 04:00:40;;;;;;;25.35;22.98;;;7.20;99.90;;;;;;5239399;28;20082;-73
2023/04/22 04:03:11;;;;;;;26.13;23.60;;;7.50;99.90;;;;;;5227618;28;20033;-73
2023/04/22 04:05:42;;;;;;;25.73;23.58;;;7.60;99.90;;;;;;5227169;28;20029;-73
2023/04/22 04:08:12;;;;;;;25.65;23.35;;;7.70;99.90;;;;;;5227195;28;20032;-73
2023/04/22 04:10:43;;;;;;;26.50;23.77;;;7.50;99.90;;;;;;5227488;28;20050;-73
2023/04/22 04:13:14;;;;;;;25.67;23.55;;;7.60;99.90;;;;;;5227421;28;20055;-73
2023/04/22 04:15:46;;;;;;;29.77;27.15;;;7.80;99.90;;;;;;5227228;28;20029;-73
2023/04/22 04:18:17;;;;;;;27.42;24.25;;;7.80;99.90;;;;;;5226838;28;20495;-72
2023/04/22 04:20:47;;;;;;;27.23;24.52;;;8.20;99.90;;;;;;5227199;28;20804;-73
2023/04/22 04:23:18;;;;;;;25.40;23.42;;;8.40;99.90;;;;;;5227396;28;20032;-74
2023/04/22 04:25:50;;;;;;;25.77;23.25;;;8.30;99.90;;;;;;5227065;28;20423;-73
2023/04/22 04:28:21;;;;;;;23.88;21.75;;;8.40;99.90;;;;;;5230067;28;20027;-73
2023/04/22 04:30:53;;;;;;;25.48;23.05;;;8.00;99.90;;;;;;5226647;28;20025;-73
2023/04/22 04:33:24;;;;;;;25.45;22.80;;;8.10;99.90;;;;;;5226860;28;20028;-73
2023/04/22 04:35:55;;;;;;;24.20;21.83;;;8.30;99.90;;;;;;5226801;28;20126;-73
2023/04/22 04:38:26;;;;;;;26.58;23.75;;;8.40;99.90;;;;;;5226913;28;20668;-73
2023/04/22 04:41:00;;;;;;;25.65;23.23;;;8.50;99.90;;;;;;5231001;28;20024;-74
2023/04/22 04:43:35;;;;;;;25.00;21.35;;;8.90;99.90;;;;;;5247318;28;20095;-74
2023/04/22 04:46:07;;;;;;;24.27;21.88;;;9.00;99.90;;;;;;5247234;28;20032;-73
2023/04/22 04:48:37;;;;;;;24.40;22.20;;;9.10;99.90;;;;;;5237300;28;20025;-74
2023/04/22 04:51:08;;;;;;;24.75;22.45;;;9.10;99.90;;;;;;5232343;28;20092;-73
2023/04/22 04:53:40;;;;;;;24.30;21.90;;;9.30;99.90;;;;;;5247498;28;20025;-73
2023/04/22 04:56:11;;;;;;;25.58;23.08;;;9.10;99.90;;;;;;5247770;28;20472;-73
2023/04/22 04:58:42;;;;;;;24.70;22.20;;;9.10;99.90;;;;;;5246672;28;20041;-73
2023/04/22 05:01:13;;;;;;;26.85;23.98;;;9.60;99.90;;;;;;5241516;28;20396;-74
2023/04/22 05:03:44;;;;;;;27.88;25.05;;;9.70;99.90;;;;;;5225438;28;20078;-73
2023/04/22 05:06:14;;;;;;;25.63;23.35;;;9.90;99.90;;;;;;5226384;28;20032;-73
2023/04/22 05:08:45;;;;;;;26.75;24.25;;;10.20;99.90;;;;;;5226452;28;20392;-73
2023/04/22 05:11:16;;;;;;;26.38;23.80;;;10.30;99.90;;;;;;5226696;28;20028;-74
2023/04/22 05:13:47;;;;;;;26.25;23.70;;;10.40;99.90;;;;;;5226529;28;20021;-73
2023/04/22 05:16:18;;;;;;;29.13;26.33;;;10.60;99.90;;;;;;5226812;28;20036;-73
2023/04/22 05:18:49;;;;;;;28.67;26.15;;;10.80;99.90;;;;;;5226521;28;20464;-73
2023/04/22 05:21:19;;;;;;;30.83;28.15;;;10.90;99.90;;;;;;5230296;28;20029;-73
2023/04/22 05:23:50;;;;;;;29.65;26.55;;;11.00;99.90;;;;;;5247216;28;20298;-73
2023/04/22 05:26:21;;;;;;;29.70;27.13;;;11.30;99.90;;;;;;5247206;28;20042;-74
2023/04/22 05:28:52;;;;;;;33.33;30.35;;;11.30;99.90;;;;;;5231093;28;20519;-73
2023/04/22 05:31:23;;;;;;;32.97;30.08;;;11.40;99.90;;;;;;5226103;28;20033;-73
2023/04/22 05:33:54;;;;;;;32.65;29.58;;;11.70;99.90;;;;;;5224852;28;20017;-74
2023/04/22 05:36:26;;;;;;;32.05;29.08;;;11.70;99.90;;;;;;5226177;28;20102;-73
2023/04/22 05:38:57;;;;;;;35.60;32.15;;;12.00;99.90;;;;;;5225474;28;20504;-74
2023/04/22 05:41:28;;;;;;;31.80;28.83;;;12.00;99.90;;;;;;5226114;28;20052;-74
2023/04/22 05:43:59;;;;;;;32.85;29.42;;;12.20;99.90;;;;;;5225807;28;20025;-73
2023/04/22 05:46:30;;;;;;;31.00;28.13;;;12.60;99.90;;;;;;5230425;28;20494;-73
2023/04/22 05:49:00;;;;;;;32.05;28.85;;;12.90;99.90;;;;;;5245355;28;20120;-73
2023/04/22 05:51:31;;;;;;;28.13;25.50;;;13.10;99.90;;;;;;5250450;28;20031;-74
2023/04/22 05:54:02;;;;;;;28.88;25.83;;;13.30;99.90;;;;;;5250249;28;20024;-74
2023/04/22 05:56:33;;;;;;;30.60;25.25;;;13.50;99.90;;;;;;5248956;28;20530;-74
2023/04/22 05:59:04;;;;;;;28.08;25.02;;;13.70;99.90;;;;;;5250183;28;20047;-73
2023/04/22 06:01:37;;;;;;;29.70;24.95;;;13.80;99.90;;;;;;5250143;28;20027;-74
2023/04/22 06:04:10;;;;;;;30.00;27.10;;;14.00;99.90;;;;;;5250113;28;20028;-73
2023/04/22 06:06:41;;;;;;;29.67;27.08;;;14.00;99.90;;;;;;5247864;28;20024;-73
2023/04/22 06:09:12;;;;;;;27.90;24.88;;;14.50;99.90;;;;;;5231105;28;20036;-73
2023/04/22 06:11:42;;;;;;;27.73;24.65;;;14.40;99.90;;;;;;5229217;28;20088;-73
2023/04/22 06:14:13;;;;;;;24.55;21.83;;;14.70;99.90;;;;;;5229151;28;20116;-73
2023/04/22 06:16:44;;;;;;;24.92;21.15;;;14.80;99.90;;;;;;5237124;28;20057;-73
2023/04/22 06:19:15;;;;;;;22.65;20.35;;;14.80;99.90;;;;;;5236953;28;20044;-74
2023/04/22 06:21:46;;;;;;;23.05;20.58;;;15.00;99.90;;;;;;5242387;28;20020;-74
2023/04/22 06:24:17;;;;;;;22.45;19.90;;;15.00;99.90;;;;;;5235917;28;20032;-74
2023/04/22 06:26:48;;;;;;;22.58;20.02;;;15.00;99.90;;;;;;5234237;28;20028;-73
2023/04/22 06:29:19;;;;;;;21.90;19.05;;;15.40;99.90;;;;;;5236106;28;20052;-73
2023/04/22 06:31:49;;;;;;;25.27;17.33;;;15.50;99.90;;;;;;5236283;28;20052;-73
2023/04/22 06:34:20;;;;;;;24.42;16.95;;;15.40;99.90;;;;;;5233011;28;20082;-74
2023/04/22 06:36:52;;;;;;;21.38;16.15;;;15.60;99.90;;;;;;5243728;28;20025;-74
2023/04/22 06:39:23;;;;;;;22.20;15.40;;;15.50;99.90;;;;;;5237174;28;20183;-74
2023/04/22 06:41:54;;;;;;;22.27;16.80;;;15.70;99.90;;;;;;5240050;28;20088;-72
2023/04/22 06:44:25;;;;;;;23.20;15.00;;;15.80;99.90;;;;;;5249207;28;20059;-73
2023/04/22 06:46:56;;;;;;;20.25;17.27;;;15.90;99.90;;;;;;5248040;28;20089;-73
2023/04/22 06:49:26;;;;;;;29.35;15.85;;;16.10;99.90;;;;;;5228573;28;20021;-73
2023/04/22 06:51:57;;;;;;;20.27;16.60;;;15.80;99.90;;;;;;5229137;28;20166;-74
2023/04/22 06:54:28;;;;;;;22.38;16.23;;;15.90;99.90;;;;;;5228349;28;20472;-73
2023/04/22 06:56:59;;;;;;;21.77;14.98;;;16.30;99.90;;;;;;5230542;28;20032;-74
2023/04/22 06:59:30;;;;;;;21.15;17.85;;;16.40;99.90;;;;;;5234908;28;20032;-73
2023/04/22 07:02:00;;;;;;;24.70;15.32;;;16.60;99.90;;;;;;5234478;28;20024;-73
2023/04/22 07:04:31;;;;;;;19.13;15.70;;;16.00;99.90;;;;;;5238878;28;20033;-74
2023/04/22 07:07:02;;;;;;;17.90;15.70;;;16.40;99.90;;;;;;5235594;28;20367;-73
2023/04/22 07:09:34;;;;;;;21.77;14.45;;;16.70;99.90;;;;;;5241839;28;20044;-73
2023/04/22 07:12:05;;;;;;;20.63;15.15;;;16.80;99.90;;;;;;5233008;28;20070;-72
2023/04/22 07:14:37;;;;;;;22.10;15.15;;;16.60;99.90;;;;;;5229232;28;20035;-74
2023/04/22 07:17:07;;;;;;;26.13;15.48;;;16.30;99.90;;;;;;5239067;28;20499;-73
2023/04/22 07:19:38;;;;;;;21.17;19.20;;;16.50;99.90;;;;;;5227878;28;20029;-73
2023/04/22 07:22:09;;;;;;;24.23;21.92;;;16.70;99.90;;;;;;5230808;28;20044;-73
2023/04/22 07:24:40;;;;;;;24.35;20.45;;;16.90;99.90;;;;;;5229683;28;20076;-73
2023/04/22 07:27:11;;;;;;;27.60;23.80;;;17.10;99.90;;;;;;5227413;28;20057;-72
2023/04/22 07:29:42;;;;;;;24.80;20.13;;;17.30;99.90;;;;;;5248145;28;20028;-72
2023/04/22 07:32:13;;;;;;;23.80;18.73;;;17.50;99.90;;;;;;5242716;28;20476;-72
2023/04/22 07:34:43;;;;;;;30.40;20.35;;;17.50;99.90;;;;;;5243401;28;20066;-72
2023/04/22 07:37:14;;;;;;;21.42;19.20;;;17.70;99.90;;;;;;5226961;28;20028;-73
2023/04/22 07:39:45;;;;;;;22.85;17.35;;;17.50;99.90;;;;;;5229351;28;20040;-74
2023/04/22 07:42:16;;;;;;;27.65;17.23;;;17.20;99.90;;;;;;5231898;28;20020;-73
2023/04/22 07:44:47;;;;;;;23.30;16.33;;;17.80;99.90;;;;;;5239343;28;20105;-73
2023/04/22 07:47:18;;;;;;;21.17;15.05;;;18.20;99.90;;;;;;5247096;28;20021;-73
2023/04/22 07:49:49;;;;;;;17.95;14.55;;;18.10;99.90;;;;;;5227232;28;20028;-72
2023/04/22 07:52:19;;;;;;;21.45;15.13;;;18.10;99.90;;;;;;5227135;28;20052;-73
2023/04/22 07:54:50;;;;;;;16.38;13.65;;;18.00;99.90;;;;;;5226873;28;20362;-72
2023/04/22 07:57:21;;;;;;;18.95;13.55;;;18.10;99.90;;;;;;5238847;28;20039;-72
2023/04/22 07:59:52;;;;;;;16.52;12.52;;;18.30;99.90;;;;;;5233980;28;20510;-73
2023/04/22 08:02:23;;;;;;;16.90;13.85;;;18.70;99.90;;;;;;5233320;28;20032;-72
2023/04/22 08:04:54;;;;;;;19.45;13.95;;;18.60;99.90;;;;;;5235475;28;20093;-73
2023/04/22 08:07:25;;;;;;;22.15;14.77;;;18.60;99.90;;;;;;5238245;28;20039;-72
2023/04/22 08:09:56;;;;;;;25.20;14.80;;;18.90;99.90;;;;;;5240624;28;20151;-73
2023/04/22 08:12:28;;;;;;;22.60;15.93;;;19.00;99.90;;;;;;5243659;28;20107;-72
2023/04/22 08:14:58;;;;;;;19.83;13.32;;;19.10;99.90;;;;;;5226878;28;20032;-73
2023/04/22 08:17:29;;;;;;;19.77;14.77;;;19.20;99.90;;;;;;5226635;28;20468;-73
2023/04/22 08:20:00;;;;;;;17.20;14.40;;;19.40;99.90;;;;;;5225384;28;20083;-72
2023/04/22 08:22:32;;;;;;;19.92;15.50;;;19.20;99.90;;;;;;5245030;28;20024;-72
2023/04/22 08:25:03;;;;;;;21.20;14.75;;;19.10;99.90;;;;;;5241127;28;20488;-74
2023/04/22 08:27:34;;;;;;;18.45;15.05;;;18.90;99.90;;;;;;5228626;28;20821;-73
2023/04/22 08:30:06;;;;;;;16.42;14.35;;;18.70;99.90;;;;;;5231562;28;20037;-73
2023/04/22 08:32:37;;;;;;;16.48;14.65;;;18.90;99.90;;;;;;5226649;28;20032;-72
2023/04/22 08:35:08;;;;;;;18.80;13.77;;;19.10;99.90;;;;;;5226470;28;20037;-73
2023/04/22 08:37:40;;;;;;;17.10;14.50;;;19.00;99.90;;;;;;5228182;28;20056;-72
2023/04/22 08:40:11;;;;;;;17.65;15.02;;;19.40;99.90;;;;;;5247177;28;20036;-73
2023/04/22 08:42:44;;;;;;;18.15;14.02;;;19.60;99.90;;;;;;5247211;28;20397;-72
2023/04/22 08:45:15;;;;;;;17.80;14.30;;;19.50;99.90;;;;;;5247301;28;20507;-73
2023/04/22 08:47:47;;;;;;;18.98;14.75;;;19.60;99.90;;;;;;5244048;28;20118;-73
2023/04/22 08:50:22;;;;;;;17.05;15.27;;;19.20;99.90;;;;;;5238665;28;20095;-71
2023/04/22 08:52:54;;;;;;;20.08;14.50;;;18.90;99.90;;;;;;5222878;28;20952;-73
2023/04/22 08:55:29;;;;;;;22.75;14.77;;;19.20;99.90;;;;;;5226328;28;20032;-72
2023/04/22 08:58:03;;;;;;;21.45;14.98;;;18.70;99.90;;;;;;5228991;28;20056;-73
2023/04/22 09:00:33;;;;;;;21.08;14.02;;;18.80;99.90;;;;;;5226197;28;20025;-73
2023/04/22 09:03:06;;;;;;;16.10;13.75;;;18.60;99.90;;;;;;5228455;28;20025;-74
2023/04/22 09:05:39;;;;;;;16.15;12.98;;;18.50;99.90;;;;;;5227789;28;20428;-73
2023/04/22 09:08:11;;;;;;;16.92;13.45;;;18.70;99.90;;;;;;5227064;28;20075;-74
2023/04/22 09:10:42;;;;;;;15.05;13.57;;;18.30;99.90;;;;;;5228755;28;20427;-74
2023/04/22 09:13:13;;;;;;;17.27;14.55;;;18.30;99.90;;;;;;5225822;28;20036;-73
2023/04/22 09:15:45;;;;;;;19.25;13.00;;;18.20;99.90;;;;;;5227573;28;20329;-74
2023/04/22 09:18:18;;;;;;;18.38;13.60;;;18.20;99.90;;;;;;5228950;28;20036;-74
2023/04/22 09:20:58;;;;;;;18.48;14.05;;;18.20;99.90;;;;;;5227960;28;20040;-73
2023/04/22 09:23:29;;;;;;;18.30;14.32;;;17.90;99.90;;;;;;5245812;28;20050;-74
2023/04/22 09:26:01;;;;;;;17.55;15.57;;;18.10;99.90;;;;;;5244727;28;20064;-74
2023/04/22 09:28:36;;;;;;;18.88;14.68;;;18.10;99.90;;;;;;5229522;28;20039;-74
2023/04/22 09:31:13;;;;;;;26.38;14.82;;;18.20;99.90;;;;;;5229924;28;20384;-74
2023/04/22 09:33:56;;;;;;;18.92;14.65;;;18.10;99.90;;;;;;5246488;28;20111;-73
2023/04/22 09:36:28;;;;;;;18.08;14.02;;;18.00;99.90;;;;;;5229768;28;20082;-73
2023/04/22 09:39:06;;;;;;;18.80;14.88;;;18.00;99.90;;;;;;5231222;28;20049;-74
2023/04/22 09:41:39;;;;;;;18.63;15.40;;;18.00;99.90;;;;;;5229880;28;20032;-73
2023/04/22 09:44:14;;;;;;;20.35;13.95;;;18.10;99.90;;;;;;5236917;28;20044;-73
2023/04/22 09:46:50;;;;;;;21.83;15.73;;;18.00;99.90;;;;;;5240246;28;20041;-73
2023/04/22 09:49:21;;;;;;;23.40;15.45;;;18.00;99.90;;;;;;5229732;28;20102;-73
2023/04/22 09:51:56;;;;;;;27.90;14.18;;;18.10;99.90;;;;;;5229570;28;20024;-74
2023/04/22 09:54:28;;;;;;;23.42;15.23;;;18.30;99.90;;;;;;5243271;28;20021;-74
2023/04/22 09:57:00;;;;;;;19.67;13.75;;;18.40;99.90;;;;;;5250374;28;20020;-73
2023/04/22 09:59:31;;;;;;;18.30;15.35;;;18.90;99.90;;;;;;5248386;28;20040;-73
2023/04/22 10:02:03;;;;;;;17.88;15.15;;;19.20;99.90;;;;;;5231973;28;20029;-73
2023/04/22 10:04:34;;;;;;;18.27;16.00;;;19.80;99.90;;;;;;5228404;28;20040;-73
2023/04/22 10:07:06;;;;;;;18.15;15.70;;;19.80;99.90;;;;;;5229317;28;20021;-74
2023/04/22 10:09:37;;;;;;;21.10;14.52;;;19.70;99.90;;;;;;5229002;28;20041;-73
2023/04/22 10:12:08;;;;;;;18.83;14.73;;;19.60;99.90;;;;;;5241171;28;20040;-74
2023/04/22 10:14:46;;;;;;;15.57;13.98;;;19.80;99.90;;;;;;5248633;28;20507;-74
2023/04/22 10:17:18;;;;;;;19.50;13.45;;;19.40;99.90;;;;;;5239345;28;20445;-74
2023/04/22 10:19:50;;;;;;;16.02;14.02;;;19.20;99.90;;;;;;5229027;28;20036;-73
2023/04/22 10:22:21;;;;;;;24.65;13.90;;;19.30;99.90;;;;;;5229144;28;20021;-73
2023/04/22 10:24:54;;;;;;;20.05;14.23;;;19.40;99.90;;;;;;5229052;28;20059;-73
2023/04/22 10:27:25;;;;;;;19.52;15.23;;;19.50;99.90;;;;;;5246132;28;20028;-73
2023/04/22 10:29:56;;;;;;;21.75;11.85;;;19.50;99.90;;;;;;5249184;28;20495;-73
2023/04/22 10:32:27;;;;;;;17.10;12.85;;;19.50;99.90;;;;;;5249547;28;20524;-73
2023/04/22 10:35:10;;;;;;;18.88;14.40;;;19.30;99.90;;;;;;5249711;28;20036;-73
2023/04/22 10:37:42;;;;;;;17.80;14.75;;;18.70;99.90;;;;;;5249506;28;20049;-73
2023/04/22 10:40:17;;;;;;;22.75;15.35;;;19.50;99.90;;;;;;5246438;28;20381;-73
2023/04/22 10:42:54;;;;;;;19.08;14.98;;;19.10;99.90;;;;;;5235188;28;20036;-73
2023/04/22 10:45:25;;;;;;;19.33;15.57;;;19.40;99.90;;;;;;5244940;28;20371;-73
2023/04/22 10:48:04;;;;;;;20.63;18.23;;;19.70;99.90;;;;;;5240233;28;20105;-73
2023/04/22 10:50:38;;;;;;;23.27;20.20;;;19.40;99.90;;;;;;5237579;28;20037;-74
2023/04/22 10:53:34;;;;;;;18.55;13.30;;;19.30;99.90;;;;;;5234877;28;20374;-74
2023/04/22 10:56:16;;;;;;;18.30;16.45;;;19.50;99.90;;;;;;5243380;28;20099;-73
2023/04/22 10:58:48;;;;;;;20.25;14.00;;;20.00;99.90;;;;;;5235684;28;20036;-75
2023/04/22 11:01:20;;;;;;;20.38;14.23;;;19.70;99.90;;;;;;5229407;28;20035;-74
2023/04/22 11:03:51;;;;;;;20.45;14.70;;;19.70;99.90;;;;;;5229103;28;20037;-75
2023/04/22 11:06:26;;;;;;;18.92;13.00;;;19.50;99.90;;;;;;5230619;28;20037;-75
2023/04/22 11:09:09;;;;;;;19.05;13.48;;;19.70;99.90;;;;;;5229259;28;20040;-74
2023/04/22 11:11:40;;;;;;;19.52;12.90;;;19.90;99.90;;;;;;5234279;28;20476;-74
2023/04/22 11:14:11;;;;;;;17.58;13.57;;;20.10;99.90;;;;;;5230471;28;20062;-74
2023/04/22 11:16:47;;;;;;;20.25;14.07;;;20.00;99.90;;;;;;5231519;28;20029;-74
2023/04/22 11:19:18;;;;;;;22.67;14.70;;;19.00;99.90;;;;;;5239105;28;20036;-74
2023/04/22 11:21:49;;;;;;;15.75;13.38;;;19.70;99.90;;;;;;5237834;28;20049;-74
2023/04/22 11:24:21;;;;;;;20.48;14.15;;;19.30;99.90;;;;;;5231837;28;20383;-74
2023/04/22 11:26:55;;;;;;;17.23;13.40;;;19.80;99.90;;;;;;5237420;28;20749;-74
2023/04/22 11:29:26;;;;;;;31.13;18.67;;;20.20;99.90;;;;;;5236497;28;20032;-74
2023/04/22 11:31:57;;;;;;;31.15;19.05;;;20.30;99.90;;;;;;5230914;28;20073;-74
2023/04/22 11:34:28;;;;;;;26.45;20.40;;;20.60;99.90;;;;;;5232311;28;20044;-74
2023/04/22 11:36:59;;;;;;;18.23;15.45;;;20.30;99.90;;;;;;5231828;28;20021;-72
2023/04/22 11:39:36;;;;;;;19.40;16.08;;;20.00;99.90;;;;;;5230966;28;20542;-75
2023/04/22 11:42:07;;;;;;;29.10;17.58;;;20.10;99.90;;;;;;5245438;28;20064;-73
2023/04/22 11:44:39;;;;;;;20.02;16.40;;;20.20;99.90;;;;;;5226425;28;20052;-74
2023/04/22 11:47:10;;;;;;;18.25;15.57;;;20.20;99.90;;;;;;5242538;28;20546;-73
2023/04/22 11:49:40;;;;;;;23.63;16.33;;;19.70;99.90;;;;;;5227326;28;20029;-74
2023/04/22 11:52:11;;;;;;;39.63;19.38;;;19.90;99.90;;;;;;5226045;28;20496;-73
2023/04/22 11:54:43;;;;;;;24.55;14.40;;;19.90;99.90;;;;;;5226774;28;20036;-73
2023/04/22 11:57:16;;;;;;;21.50;15.27;;;19.40;99.90;;;;;;5227318;28;20357;-74
2023/04/22 11:59:58;;;;;;;32.95;15.77;;;19.20;99.90;;;;;;5228912;28;20033;-74
2023/04/22 12:02:28;;;;;;;23.65;15.63;;;19.20;99.90;;;;;;5227673;28;20528;-74
2023/04/22 12:05:02;;;;;;;22.40;15.00;;;19.20;99.90;;;;;;5227532;28;20180;-73
2023/04/22 12:07:32;;;;;;;18.52;15.57;;;19.10;99.90;;;;;;5227677;28;20036;-74
2023/04/22 12:10:07;;;;;;;23.27;15.20;;;19.00;99.90;;;;;;5226133;28;20083;-73
2023/04/22 12:12:39;;;;;;;26.35;20.00;;;19.10;99.90;;;;;;5228013;28;20387;-79
2023/04/22 12:15:10;;;;;;;26.48;21.85;;;19.40;99.90;;;;;;5236689;28;20403;-72
2023/04/22 12:17:44;;;;;;;42.08;24.35;;;19.50;99.90;;;;;;5240966;28;20021;-72
2023/04/22 12:20:15;;;;;;;25.60;23.08;;;19.00;99.90;;;;;;5229959;28;20029;-72
2023/04/22 12:22:46;;;;;;;26.38;23.73;;;19.30;99.90;;;;;;5242821;28;20031;-74
2023/04/22 12:25:18;;;;;;;20.75;16.90;;;18.70;99.90;;;;;;5231240;28;20780;-73
2023/04/22 12:27:49;;;;;;;182.48;32.25;;;18.50;99.90;;;;;;5244075;28;20487;-74
2023/04/22 12:30:22;;;;;;;50.65;21.55;;;18.80;99.90;;;;;;5238612;28;20024;-73
2023/04/22 12:32:53;;;;;;;24.88;18.35;;;18.50;99.90;;;;;;5243460;28;20025;-72
2023/04/22 12:35:24;;;;;;;23.23;18.98;;;18.50;99.90;;;;;;5233514;28;20473;-73
2023/04/22 12:37:54;;;;;;;20.98;18.83;;;18.40;99.90;;;;;;5226225;28;20080;-71
2023/04/22 12:40:25;;;;;;;17.27;15.40;;;18.30;99.90;;;;;;5233978;28;20139;-75
2023/04/22 12:42:56;;;;;;;18.02;15.35;;;18.10;99.90;;;;;;5247015;28;20375;-76
2023/04/22 12:45:27;;;;;;;25.25;17.23;;;17.90;99.90;;;;;;5245728;28;20419;-71
2023/04/22 12:47:58;;;;;;;21.83;18.50;;;17.70;99.90;;;;;;5238133;28;20472;-72
2023/04/22 12:50:29;;;;;;;21.70;18.38;;;17.70;99.90;;;;;;5232134;28;20043;-75
2023/04/22 12:53:00;;;;;;;21.02;19.00;;;17.80;99.90;;;;;;5228559;28;20033;-74